Time;durP1;ratioP1;P1;durP2;ratioP2;P2;SDS_P1;SDS_P2;PMS_P1;PMS_P2;Temp;Humidity;BMP_temperature;BMP_pressure;BME280_temperature;BME280_humidity;BME280_pressure;Samples;Min_cycle;Max_cycle;Signal;HPM_P1;HPM_P2
2023/05/17 00:01:50;;;;;;;22.50;4.35;;;9.50;99.90;;;;;;5007454;28;20051;-63
2023/05/17 00:04:16;;;;;;;24.00;5.57;;;9.50;99.90;;;;;;5058494;28;20050;-62
2023/05/17 00:06:42;;;;;;;22.30;3.60;;;9.50;99.90;;;;;;5049971;28;20453;-63
2023/05/17 00:09:08;;;;;;;20.85;4.75;;;9.50;99.90;;;;;;5043389;28;20045;-63
2023/05/17 00:11:34;;;;;;;22.73;4.20;;;9.50;99.90;;;;;;5048056;28;20047;-63
2023/05/17 00:14:00;;;;;;;21.60;4.65;;;9.50;99.90;;;;;;5050797;28;20040;-63
2023/05/17 00:16:26;;;;;;;20.02;3.92;;;9.50;99.90;;;;;;5048993;28;20449;-62
2023/05/17 00:18:52;;;;;;;13.73;4.93;;;9.60;99.90;;;;;;5038169;28;20044;-62
2023/05/17 00:21:17;;;;;;;17.48;3.95;;;9.60;99.90;;;;;;5035531;28;20032;-61
2023/05/17 00:23:43;;;;;;;22.45;5.05;;;9.60;99.90;;;;;;5049716;28;20560;-63
2023/05/17 00:26:09;;;;;;;23.80;4.00;;;9.60;99.90;;;;;;5031801;28;20075;-62
2023/05/17 00:28:34;;;;;;;16.52;4.63;;;9.60;99.90;;;;;;5057340;28;20399;-63
2023/05/17 00:31:00;;;;;;;20.13;4.45;;;9.60;99.90;;;;;;5050077;28;20035;-63
2023/05/17 00:33:26;;;;;;;18.67;4.68;;;9.50;99.90;;;;;;5031926;28;20492;-62
2023/05/17 00:35:52;;;;;;;20.85;4.20;;;9.60;99.90;;;;;;5050248;28;20542;-62
2023/05/17 00:38:17;;;;;;;30.13;4.95;;;9.60;99.90;;;;;;5033787;28;20036;-63
2023/05/17 00:40:43;;;;;;;19.08;3.85;;;9.50;99.90;;;;;;5051519;28;20033;-63
2023/05/17 00:43:09;;;;;;;20.10;3.78;;;9.50;99.90;;;;;;5048138;28;20037;-63
2023/05/17 00:45:35;;;;;;;25.42;3.90;;;9.50;99.90;;;;;;5045089;28;20181;-63
2023/05/17 00:48:00;;;;;;;21.00;3.67;;;9.40;99.90;;;;;;5042696;28;20123;-62
2023/05/17 00:50:26;;;;;;;23.38;5.35;;;9.40;99.90;;;;;;5053158;28;20056;-62
2023/05/17 00:52:52;;;;;;;23.10;4.47;;;9.40;99.90;;;;;;5031304;28;20658;-62
2023/05/17 00:55:19;;;;;;;17.77;3.75;;;9.40;99.90;;;;;;5032626;28;20044;-63
2023/05/17 00:57:45;;;;;;;21.75;4.03;;;9.30;99.90;;;;;;5063048;28;20085;-63
2023/05/17 01:00:12;;;;;;;20.73;4.07;;;9.30;99.90;;;;;;5055790;28;20127;-62
2023/05/17 01:02:37;;;;;;;18.98;4.13;;;9.30;99.90;;;;;;5049749;28;20043;-63
2023/05/17 01:05:04;;;;;;;19.88;3.45;;;9.30;99.90;;;;;;5047197;28;20044;-62
2023/05/17 01:07:30;;;;;;;25.63;4.38;;;9.30;99.90;;;;;;5046024;28;20319;-63
2023/05/17 01:09:56;;;;;;;17.50;3.33;;;9.20;99.90;;;;;;5044638;28;20549;-64
2023/05/17 01:12:42;;;;;;;16.83;3.45;;;9.20;99.90;;;;;;5046025;28;20055;-63
2023/05/17 01:15:17;;;;;;;17.33;3.28;;;9.20;99.90;;;;;;5044815;28;20044;-63
2023/05/17 01:18:03;;;;;;;23.55;4.50;;;9.10;99.90;;;;;;5030399;28;20144;-63
2023/05/17 01:20:37;;;;;;;15.68;3.08;;;9.10;99.90;;;;;;5048209;28;20503;-64
2023/05/17 01:23:39;;;;;;;25.80;3.80;;;9.10;99.90;;;;;;5047878;28;20487;-63
2023/05/17 01:26:21;;;;;;;14.40;3.45;;;9.10;99.90;;;;;;5048346;28;20051;-63
2023/05/17 01:28:52;;;;;;;15.32;3.05;;;9.10;99.90;;;;;;5028763;28;20040;-64
2023/05/17 01:31:19;;;;;;;19.67;3.38;;;9.10;99.90;;;;;;5042380;28;20434;-64
2023/05/17 01:33:45;;;;;;;17.17;2.70;;;9.10;99.90;;;;;;5053482;28;20530;-64
2023/05/17 01:36:11;;;;;;;16.45;3.00;;;9.10;99.90;;;;;;5047690;28;20526;-64
2023/05/17 01:38:37;;;;;;;12.77;2.70;;;9.10;99.90;;;;;;5070064;28;20045;-64
2023/05/17 01:41:17;;;;;;;14.27;3.15;;;9.10;99.90;;;;;;5051998;28;20590;-63
2023/05/17 01:43:51;;;;;;;15.57;2.92;;;9.10;99.90;;;;;;5042854;28;20042;-64
2023/05/17 01:46:28;;;;;;;20.23;2.85;;;9.10;99.90;;;;;;5045292;28;20044;-64
2023/05/17 01:49:20;;;;;;;14.05;3.15;;;9.10;99.90;;;;;;5047952;28;20469;-63
2023/05/17 01:52:27;;;;;;;22.42;4.43;;;9.10;99.90;;;;;;5048909;28;20041;-64
2023/05/17 01:55:07;;;;;;;12.32;2.30;;;9.10;99.90;;;;;;4998644;28;20053;-65
2023/05/17 01:57:35;;;;;;;13.63;2.50;;;9.00;99.90;;;;;;5056682;28;20052;-63
2023/05/17 02:00:05;;;;;;;19.95;3.85;;;9.00;99.90;;;;;;5034825;28;20500;-64
2023/05/17 02:02:31;;;;;;;19.95;4.45;;;8.90;99.90;;;;;;5050880;28;20072;-64
2023/05/17 02:04:57;;;;;;;14.90;2.88;;;8.90;99.90;;;;;;5053329;28;20400;-63
2023/05/17 02:07:23;;;;;;;17.17;2.90;;;8.90;99.90;;;;;;5028552;28;20072;-64
2023/05/17 02:09:48;;;;;;;14.02;3.03;;;8.90;99.90;;;;;;5069681;28;20063;-63
2023/05/17 02:12:14;;;;;;;18.42;2.83;;;8.80;99.90;;;;;;5046885;28;20155;-64
2023/05/17 02:14:40;;;;;;;16.95;3.22;;;8.80;99.90;;;;;;5039939;28;20491;-64
2023/05/17 02:17:06;;;;;;;13.88;2.80;;;8.80;99.90;;;;;;5052581;28;20036;-63
2023/05/17 02:19:32;;;;;;;11.00;2.28;;;8.80;99.90;;;;;;5044153;28;20523;-64
2023/05/17 02:21:57;;;;;;;16.23;2.38;;;8.80;99.90;;;;;;5023552;28;20047;-63
2023/05/17 02:24:23;;;;;;;14.20;2.55;;;8.70;99.90;;;;;;5038517;28;20094;-64
2023/05/17 02:26:49;;;;;;;16.15;3.53;;;8.70;99.90;;;;;;5019783;28;20530;-64
2023/05/17 02:29:15;;;;;;;21.35;2.70;;;8.70;99.90;;;;;;5050867;28;20053;-64
2023/05/17 02:31:40;;;;;;;15.77;2.78;;;8.70;99.90;;;;;;5054440;28;20076;-64
2023/05/17 02:34:06;;;;;;;15.25;2.95;;;8.70;99.90;;;;;;5044671;28;20044;-64
2023/05/17 02:36:32;;;;;;;16.73;2.40;;;8.70;99.90;;;;;;5047014;28;20060;-64
2023/05/17 02:38:58;;;;;;;13.02;2.53;;;8.70;99.90;;;;;;5053991;28;20724;-64
2023/05/17 02:41:24;;;;;;;8.82;2.05;;;8.70;99.90;;;;;;5056504;28;20067;-65
2023/05/17 02:43:49;;;;;;;14.15;2.55;;;8.70;99.90;;;;;;5017840;28;20479;-64
2023/05/17 02:46:15;;;;;;;12.80;2.83;;;8.70;99.90;;;;;;5034376;28;20134;-64
2023/05/17 02:48:41;;;;;;;13.35;2.65;;;8.70;99.90;;;;;;5035386;28;20047;-63
2023/05/17 02:51:06;;;;;;;15.85;3.45;;;8.70;99.90;;;;;;5040437;28;20076;-63
2023/05/17 02:53:32;;;;;;;16.92;2.83;;;8.70;99.90;;;;;;5035720;28;20072;-63
2023/05/17 02:55:58;;;;;;;10.55;2.22;;;8.80;99.90;;;;;;5051526;28;20402;-63
2023/05/17 02:58:24;;;;;;;13.10;2.30;;;8.80;99.90;;;;;;5052756;28;20110;-64
2023/05/17 03:00:50;;;;;;;19.70;2.60;;;8.80;99.90;;;;;;5039409;28;20087;-64
2023/05/17 03:03:16;;;;;;;11.95;2.80;;;8.80;99.90;;;;;;5067147;28;20051;-64
2023/05/17 03:05:42;;;;;;;15.80;3.22;;;8.80;99.90;;;;;;5050035;28;20044;-64
2023/05/17 03:08:08;;;;;;;14.35;3.20;;;8.80;99.90;;;;;;5043685;28;20445;-63
2023/05/17 03:10:33;;;;;;;7.95;1.90;;;8.80;99.90;;;;;;5031720;28;20051;-63
2023/05/17 03:12:59;;;;;;;16.00;2.88;;;8.80;99.90;;;;;;5079720;28;20541;-64
2023/05/17 03:15:28;;;;;;;12.43;3.00;;;8.80;99.90;;;;;;5037859;28;20040;-63
2023/05/17 03:17:57;;;;;;;14.48;2.17;;;8.80;99.90;;;;;;5039144;28;20094;-63
2023/05/17 03:20:23;;;;;;;8.07;1.98;;;8.80;99.90;;;;;;5020593;28;20029;-63
2023/05/17 03:22:49;;;;;;;14.07;2.80;;;8.70;99.90;;;;;;5048803;28;20123;-63
2023/05/17 03:25:14;;;;;;;14.18;2.40;;;8.70;99.90;;;;;;5060138;28;20139;-64
2023/05/17 03:27:40;;;;;;;14.68;2.28;;;8.70;99.90;;;;;;5050543;28;20147;-63
2023/05/17 03:30:07;;;;;;;12.45;1.90;;;8.70;99.90;;;;;;5050407;28;20095;-64
2023/05/17 03:32:32;;;;;;;14.20;2.15;;;8.60;99.90;;;;;;5050800;28;20110;-63
2023/05/17 03:34:58;;;;;;;14.98;2.22;;;8.60;99.90;;;;;;5032578;28;20036;-64
2023/05/17 03:37:24;;;;;;;11.95;2.30;;;8.60;99.90;;;;;;5053746;28;20048;-64
2023/05/17 03:39:50;;;;;;;11.20;2.17;;;8.60;99.90;;;;;;5047578;28;20045;-64
2023/05/17 03:42:15;;;;;;;14.57;2.83;;;8.60;99.90;;;;;;5044118;28;20040;-64
2023/05/17 03:44:41;;;;;;;9.35;1.80;;;8.60;99.90;;;;;;5033700;28;20040;-64
2023/05/17 03:47:07;;;;;;;8.65;1.70;;;8.60;99.90;;;;;;5052298;28;20036;-63
2023/05/17 03:49:33;;;;;;;13.40;2.28;;;8.60;99.90;;;;;;5057509;28;20039;-64
2023/05/17 03:51:58;;;;;;;11.38;2.22;;;8.70;99.90;;;;;;5047500;28;20068;-65
2023/05/17 03:54:24;;;;;;;12.13;2.35;;;8.60;99.90;;;;;;5046652;28;20526;-63
2023/05/17 03:56:50;;;;;;;11.57;2.05;;;8.60;99.90;;;;;;5048400;28;20044;-63
2023/05/17 03:59:16;;;;;;;6.38;1.83;;;8.70;99.90;;;;;;5051479;28;20044;-64
2023/05/17 04:01:42;;;;;;;9.38;1.80;;;8.70;99.90;;;;;;5031327;28;20487;-63
2023/05/17 04:04:08;;;;;;;12.82;2.33;;;8.70;99.90;;;;;;5050507;28;20613;-63
2023/05/17 04:06:34;;;;;;;14.30;2.22;;;8.70;99.90;;;;;;5055782;28;20057;-63
2023/05/17 04:09:00;;;;;;;9.30;2.10;;;8.70;99.90;;;;;;5046820;28;20414;-63
2023/05/17 04:11:27;;;;;;;9.50;1.60;;;8.70;99.90;;;;;;5045163;28;20045;-63
2023/05/17 04:13:56;;;;;;;12.02;2.03;;;8.70;99.90;;;;;;5029303;28;20040;-63
2023/05/17 04:16:22;;;;;;;8.95;1.52;;;8.70;99.90;;;;;;5043845;28;20551;-64
2023/05/17 04:18:51;;;;;;;6.13;1.70;;;8.80;99.90;;;;;;5039330;28;20299;-63
2023/05/17 04:21:17;;;;;;;8.90;1.85;;;8.80;99.90;;;;;;5047909;28;20045;-63
2023/05/17 04:23:43;;;;;;;10.88;2.35;;;8.80;99.90;;;;;;5063943;22;20462;-64
2023/05/17 04:26:09;;;;;;;11.30;1.80;;;8.80;99.90;;;;;;5025201;28;20082;-63
2023/05/17 04:28:35;;;;;;;11.30;1.80;;;8.90;99.90;;;;;;5032618;28;20180;-63
2023/05/17 04:31:00;;;;;;;7.43;1.80;;;8.90;99.90;;;;;;5010504;28;20041;-64
2023/05/17 04:33:26;;;;;;;10.00;2.28;;;8.90;99.90;;;;;;5010509;28;21676;-64
2023/05/17 04:35:55;;;;;;;9.50;1.90;;;8.90;99.90;;;;;;5030809;28;20045;-64
2023/05/17 04:38:22;;;;;;;9.75;1.88;;;8.90;99.90;;;;;;5032546;28;20068;-63
2023/05/17 04:40:48;;;;;;;11.18;2.15;;;9.00;99.90;;;;;;5031370;28;20052;-64
2023/05/17 04:43:13;;;;;;;9.18;1.80;;;9.00;99.90;;;;;;5034671;28;20387;-63
2023/05/17 04:45:39;;;;;;;10.10;1.65;;;9.00;99.90;;;;;;5049819;28;20082;-64
2023/05/17 04:48:05;;;;;;;15.40;2.42;;;9.10;99.90;;;;;;5027078;28;20123;-64
2023/05/17 04:50:31;;;;;;;12.45;1.98;;;9.10;99.90;;;;;;5030154;28;20548;-63
2023/05/17 04:52:57;;;;;;;7.85;2.28;;;9.10;99.90;;;;;;5028797;28;20447;-64
2023/05/17 04:55:23;;;;;;;8.30;1.70;;;9.20;99.90;;;;;;5019632;28;20059;-63
2023/05/17 04:57:48;;;;;;;9.30;1.83;;;9.20;99.90;;;;;;5005351;28;20110;-63
2023/05/17 05:00:15;;;;;;;11.70;1.73;;;9.30;99.90;;;;;;5008551;28;20045;-63
2023/05/17 05:02:41;;;;;;;7.20;1.60;;;9.30;99.90;;;;;;5026245;28;20040;-64
2023/05/17 05:05:10;;;;;;;11.15;2.08;;;9.30;99.90;;;;;;5001701;28;20420;-64
2023/05/17 05:07:38;;;;;;;13.57;2.10;;;9.30;99.90;;;;;;5018630;28;20523;-62
2023/05/17 05:10:05;;;;;;;13.30;1.80;;;9.40;99.90;;;;;;5029195;28;20411;-64
2023/05/17 05:12:33;;;;;;;8.55;1.63;;;9.20;99.90;;;;;;5023423;28;20069;-64
2023/05/17 05:14:59;;;;;;;6.45;1.63;;;9.40;99.90;;;;;;5021277;28;20478;-63
2023/05/17 05:17:24;;;;;;;11.40;1.98;;;9.40;99.90;;;;;;5014842;28;20052;-64
2023/05/17 05:19:50;;;;;;;11.00;1.58;;;9.40;99.90;;;;;;5011894;28;20056;-64
2023/05/17 05:22:16;;;;;;;12.35;2.25;;;9.40;99.90;;;;;;5006601;28;20111;-64
2023/05/17 05:24:42;;;;;;;10.40;2.00;;;9.50;99.90;;;;;;5000872;28;20492;-64
2023/05/17 05:27:07;;;;;;;8.10;2.05;;;9.50;99.90;;;;;;5025034;28;20069;-63
2023/05/17 05:29:33;;;;;;;13.00;2.42;;;9.60;99.90;;;;;;5018453;28;20032;-63
2023/05/17 05:31:59;;;;;;;7.45;1.60;;;9.60;99.90;;;;;;5016196;28;20045;-63
2023/05/17 05:34:27;;;;;;;12.63;2.10;;;9.60;99.90;;;;;;5018525;28;20041;-63
2023/05/17 05:36:53;;;;;;;12.10;2.33;;;9.70;99.90;;;;;;5023789;28;20041;-64
2023/05/17 05:39:18;;;;;;;11.20;1.95;;;9.70;99.90;;;;;;5021040;28;20095;-64
2023/05/17 05:41:44;;;;;;;12.73;2.22;;;9.80;99.90;;;;;;5018872;28;20552;-63
2023/05/17 05:44:10;;;;;;;9.52;2.40;;;9.80;99.90;;;;;;5006467;28;20041;-63
2023/05/17 05:46:36;;;;;;;17.65;2.55;;;9.80;99.90;;;;;;5001925;28;20051;-64
2023/05/17 05:49:01;;;;;;;15.85;3.03;;;9.90;99.90;;;;;;5015082;28;20044;-63
2023/05/17 05:51:27;;;;;;;13.15;2.42;;;9.90;99.90;;;;;;5020518;28;20041;-64
2023/05/17 05:53:53;;;;;;;9.98;2.05;;;10.00;99.90;;;;;;5019132;28;20045;-63
2023/05/17 05:56:19;;;;;;;16.85;3.00;;;10.00;99.90;;;;;;5020326;28;20399;-64
2023/05/17 05:58:44;;;;;;;9.80;2.00;;;10.00;99.90;;;;;;5027938;28;20043;-64
2023/05/17 06:01:10;;;;;;;16.88;2.70;;;10.00;99.90;;;;;;4996685;28;20041;-63
2023/05/17 06:03:36;;;;;;;14.27;2.50;;;10.00;99.90;;;;;;5028108;28;20040;-65
2023/05/17 06:06:02;;;;;;;11.90;2.60;;;10.00;99.90;;;;;;5033524;28;20120;-63
2023/05/17 06:08:27;;;;;;;19.63;3.30;;;10.10;99.90;;;;;;5012990;28;20033;-64
2023/05/17 06:10:53;;;;;;;9.65;2.28;;;10.20;99.90;;;;;;5033020;28;20394;-64
2023/05/17 06:13:19;;;;;;;15.82;2.30;;;10.20;99.90;;;;;;5036396;28;20111;-63
2023/05/17 06:15:44;;;;;;;14.30;2.33;;;10.20;99.90;;;;;;5009153;28;20047;-63
2023/05/17 06:18:10;;;;;;;11.55;2.08;;;10.20;99.90;;;;;;5024710;28;20045;-63
2023/05/17 06:20:36;;;;;;;13.55;2.60;;;10.10;99.90;;;;;;5010809;28;20407;-64
2023/05/17 06:23:03;;;;;;;15.88;2.90;;;10.10;99.90;;;;;;5030477;28;20094;-64
2023/05/17 06:25:29;;;;;;;13.13;2.53;;;10.10;99.90;;;;;;5029537;28;20041;-64
2023/05/17 06:27:55;;;;;;;11.88;2.83;;;10.10;99.90;;;;;;5032912;28;20043;-63
2023/05/17 06:30:21;;;;;;;16.13;2.85;;;10.20;99.90;;;;;;5032172;28;20044;-64
2023/05/17 06:32:46;;;;;;;15.98;2.40;;;10.20;99.90;;;;;;5014019;28;20102;-64
2023/05/17 06:35:12;;;;;;;14.07;2.90;;;10.20;99.90;;;;;;5028513;28;20535;-64
2023/05/17 06:37:38;;;;;;;13.57;1.92;;;10.30;99.90;;;;;;5036576;28;20051;-63
2023/05/17 06:40:05;;;;;;;14.70;2.75;;;10.10;99.90;;;;;;5031408;28;20037;-64
2023/05/17 06:42:40;;;;;;;15.73;3.10;;;10.20;99.90;;;;;;5029666;28;20046;-64
2023/05/17 06:45:06;;;;;;;13.68;2.28;;;10.20;99.90;;;;;;5033339;28;20040;-63
2023/05/17 06:47:32;;;;;;;10.43;2.25;;;10.10;99.70;;;;;;5031346;28;20037;-63
2023/05/17 06:49:58;;;;;;;10.98;2.95;;;10.10;99.90;;;;;;5052064;28;21392;-63
2023/05/17 06:52:24;;;;;;;16.33;3.08;;;10.20;99.90;;;;;;5002580;28;20053;-64
2023/05/17 06:54:50;;;;;;;10.13;2.53;;;10.20;99.80;;;;;;5033777;28;20083;-63
2023/05/17 06:57:15;;;;;;;19.45;2.72;;;10.20;99.70;;;;;;5009715;28;20355;-64
2023/05/17 06:59:44;;;;;;;11.07;2.22;;;10.30;99.90;;;;;;4997852;28;20048;-63
2023/05/17 07:02:10;;;;;;;10.95;2.38;;;10.30;99.90;;;;;;5028732;28;20040;-64
2023/05/17 07:04:35;;;;;;;13.50;3.22;;;10.30;99.90;;;;;;5032545;28;20037;-64
2023/05/17 07:07:01;;;;;;;10.23;2.15;;;10.20;99.20;;;;;;5035790;28;20045;-64
2023/05/17 07:09:27;;;;;;;9.82;2.38;;;10.10;99.70;;;;;;5031402;28;20101;-63
2023/05/17 07:11:53;;;;;;;12.05;2.22;;;10.10;99.70;;;;;;5048048;28;20040;-63
2023/05/17 07:14:18;;;;;;;9.52;2.55;;;10.10;99.30;;;;;;5028154;28;20338;-64
2023/05/17 07:16:44;;;;;;;11.68;2.15;;;10.30;99.50;;;;;;5028149;28;20060;-63
2023/05/17 07:19:10;;;;;;;12.23;3.05;;;10.60;99.20;;;;;;5023772;28;20495;-64
2023/05/17 07:21:35;;;;;;;17.00;2.50;;;10.70;98.60;;;;;;5033432;28;20041;-64
2023/05/17 07:24:01;;;;;;;11.15;2.83;;;10.80;98.40;;;;;;5031051;28;20036;-64
2023/05/17 07:26:27;;;;;;;9.55;2.00;;;10.90;98.50;;;;;;5030356;28;20495;-64
2023/05/17 07:28:53;;;;;;;11.35;2.15;;;11.00;98.70;;;;;;5034961;28;20040;-63
2023/05/17 07:31:18;;;;;;;10.75;2.13;;;11.00;98.20;;;;;;5032707;28;20072;-63
2023/05/17 07:33:44;;;;;;;8.73;2.08;;;11.10;98.40;;;;;;5028873;28;20037;-63
2023/05/17 07:36:10;;;;;;;12.70;2.67;;;11.10;98.70;;;;;;5023670;28;20041;-64
2023/05/17 07:38:36;;;;;;;9.57;2.17;;;11.20;98.80;;;;;;5031833;28;20090;-64
2023/05/17 07:41:03;;;;;;;11.98;3.15;;;11.20;98.80;;;;;;5025276;28;20045;-64
2023/05/17 07:43:29;;;;;;;11.95;2.38;;;11.20;98.70;;;;;;5030789;28;20115;-63
2023/05/17 07:45:55;;;;;;;11.52;2.45;;;11.10;98.60;;;;;;5012472;28;20365;-64
2023/05/17 07:48:20;;;;;;;13.57;2.47;;;11.10;98.60;;;;;;5016081;28;20098;-64
2023/05/17 07:50:47;;;;;;;12.45;2.97;;;11.10;98.90;;;;;;5029124;28;20040;-64
2023/05/17 07:53:13;;;;;;;12.95;3.00;;;11.10;99.10;;;;;;5031976;28;20056;-63
2023/05/17 07:55:39;;;;;;;17.45;2.60;;;11.00;99.20;;;;;;5028529;28;20045;-64
2023/05/17 07:58:04;;;;;;;13.23;2.95;;;11.00;99.20;;;;;;5032017;28;20527;-64
2023/05/17 08:00:31;;;;;;;13.77;3.10;;;10.90;99.40;;;;;;5028923;28;20106;-64
2023/05/17 08:02:57;;;;;;;12.85;3.60;;;10.90;99.50;;;;;;5030087;28;20041;-64
2023/05/17 08:05:24;;;;;;;11.93;2.45;;;10.80;99.90;;;;;;5020484;28;20041;-63
2023/05/17 08:07:51;;;;;;;16.38;3.22;;;10.80;99.90;;;;;;5030178;28;20122;-63
2023/05/17 08:10:16;;;;;;;17.25;2.92;;;10.80;99.90;;;;;;5015168;28;20037;-64
2023/05/17 08:12:42;;;;;;;21.35;3.45;;;10.80;99.90;;;;;;5028908;28;20037;-64
2023/05/17 08:15:08;;;;;;;16.63;3.28;;;11.00;99.90;;;;;;5016199;28;20352;-64
2023/05/17 08:17:34;;;;;;;16.27;3.00;;;11.20;99.90;;;;;;5009613;28;20033;-64
2023/05/17 08:19:59;;;;;;;13.95;3.60;;;11.30;99.90;;;;;;5032886;28;20384;-64
2023/05/17 08:22:26;;;;;;;13.65;3.10;;;11.40;99.90;;;;;;5033243;28;20070;-64
2023/05/17 08:24:51;;;;;;;9.50;2.28;;;11.40;99.90;;;;;;5010689;28;20037;-63
2023/05/17 08:27:17;;;;;;;14.63;2.47;;;11.40;99.90;;;;;;5031625;28;20051;-63
2023/05/17 08:29:43;;;;;;;15.70;2.88;;;11.40;99.60;;;;;;5032174;28;20036;-64
2023/05/17 08:32:09;;;;;;;10.05;2.33;;;11.30;99.20;;;;;;5046608;28;20083;-64
2023/05/17 08:34:35;;;;;;;9.38;1.88;;;11.30;99.40;;;;;;5025311;28;20404;-64
2023/05/17 08:37:01;;;;;;;9.43;2.17;;;11.40;99.40;;;;;;5032689;28;20057;-64
2023/05/17 08:39:27;;;;;;;12.02;2.40;;;11.40;99.10;;;;;;5030965;28;20501;-64
2023/05/17 08:41:55;;;;;;;16.70;2.45;;;11.40;98.50;;;;;;5030714;28;20082;-63
2023/05/17 08:44:22;;;;;;;9.32;1.85;;;11.40;98.70;;;;;;5006242;28;20046;-64
2023/05/17 08:46:52;;;;;;;11.23;2.13;;;11.60;98.90;;;;;;5017311;28;20040;-63
2023/05/17 08:49:20;;;;;;;10.40;2.58;;;11.80;98.20;;;;;;5009856;28;20132;-64
2023/05/17 08:51:49;;;;;;;16.92;2.53;;;12.00;97.90;;;;;;5018094;28;20064;-63
2023/05/17 08:54:14;;;;;;;9.45;2.33;;;12.20;97.20;;;;;;5030886;28;20254;-63
2023/05/17 08:56:42;;;;;;;12.95;2.70;;;12.40;97.40;;;;;;5017331;28;20045;-64
2023/05/17 08:59:11;;;;;;;12.55;2.35;;;12.60;97.20;;;;;;5040502;28;20382;-63
2023/05/17 09:01:42;;;;;;;9.15;2.22;;;12.80;97.30;;;;;;5031374;28;20128;-64
2023/05/17 09:04:11;;;;;;;12.15;3.20;;;12.70;95.90;;;;;;5024504;28;20115;-64
2023/05/17 09:06:37;;;;;;;12.30;2.85;;;12.50;96.10;;;;;;5027606;28;20033;-64
2023/05/17 09:09:06;;;;;;;16.65;2.75;;;12.50;95.70;;;;;;5044030;28;20037;-64
2023/05/17 09:11:32;;;;;;;17.30;2.38;;;12.50;95.90;;;;;;5048488;28;20477;-65
2023/05/17 09:14:04;;;;;;;10.82;2.10;;;12.40;95.40;;;;;;5012573;28;20049;-64
2023/05/17 09:16:35;;;;;;;9.52;2.45;;;12.50;95.30;;;;;;5032590;28;20036;-63
2023/05/17 09:19:02;;;;;;;8.20;2.78;;;12.50;95.40;;;;;;5030232;28;20045;-64
2023/05/17 09:21:31;;;;;;;11.38;2.42;;;12.30;95.10;;;;;;5027567;28;20499;-64
2023/05/17 09:23:59;;;;;;;9.15;1.98;;;12.50;95.70;;;;;;5022614;28;20040;-63
2023/05/17 09:26:25;;;;;;;10.07;1.95;;;12.80;96.00;;;;;;5030706;28;20116;-64
2023/05/17 09:28:52;;;;;;;14.07;2.05;;;12.70;94.90;;;;;;5029415;28;20177;-63
2023/05/17 09:31:18;;;;;;;9.30;2.00;;;12.60;95.10;;;;;;5033693;28;20037;-64
2023/05/17 09:33:48;;;;;;;12.57;2.08;;;12.60;94.80;;;;;;5031046;28;20047;-64
2023/05/17 09:36:22;;;;;;;7.32;1.65;;;12.60;95.20;;;;;;5034050;28;20044;-64
2023/05/17 09:38:58;;;;;;;;;;;13.00;95.30;;;;;;5022200;28;20056;-64
2023/05/17 09:41:29;;;;;;;13.18;2.25;;;13.10;95.40;;;;;;5027703;28;20020;-64
2023/05/17 09:44:08;;;;;;;10.98;1.88;;;13.10;95.50;;;;;;5013274;28;20112;-63
2023/05/17 09:46:34;;;;;;;11.48;2.30;;;13.00;95.10;;;;;;5024117;28;20112;-64
2023/05/17 09:49:03;;;;;;;9.80;1.98;;;12.90;94.80;;;;;;5029631;28;20117;-64
2023/05/17 09:51:32;;;;;;;11.35;2.00;;;12.70;93.90;;;;;;5034070;28;20146;-64
2023/05/17 09:53:58;;;;;;;9.48;1.90;;;12.70;94.40;;;;;;5025776;28;20037;-64
2023/05/17 09:56:28;;;;;;;11.40;2.03;;;12.80;94.40;;;;;;5027467;28;20036;-64
2023/05/17 09:58:54;;;;;;;15.35;2.45;;;13.00;94.80;;;;;;5029363;28;20048;-67
2023/05/17 10:01:21;;;;;;;9.15;2.28;;;13.20;94.70;;;;;;5021578;28;20076;-64
2023/05/17 10:03:50;;;;;;;8.20;2.13;;;13.30;93.90;;;;;;5028517;28;20076;-64
2023/05/17 10:06:19;;;;;;;7.55;1.98;;;13.30;93.90;;;;;;5027561;28;20144;-64
2023/05/17 10:08:52;;;;;;;11.07;2.25;;;13.50;93.40;;;;;;5018702;28;20028;-63
2023/05/17 10:11:23;;;;;;;15.70;3.20;;;13.30;92.50;;;;;;5006289;28;20063;-65
2023/05/17 10:14:00;;;;;;;7.70;2.03;;;13.10;92.60;;;;;;5020745;28;20055;-64
2023/05/17 10:16:27;;;;;;;12.13;1.83;;;12.90;93.20;;;;;;5045078;28;20243;-63
2023/05/17 10:18:53;;;;;;;13.50;2.13;;;13.10;94.10;;;;;;5032300;28;20037;-62
2023/05/17 10:21:19;;;;;;;15.50;2.53;;;13.30;94.50;;;;;;5018738;28;20091;-64
2023/05/17 10:23:46;;;;;;;10.98;2.10;;;13.60;94.40;;;;;;5033614;28;20048;-65
2023/05/17 10:26:14;;;;;;;9.40;2.05;;;13.80;94.50;;;;;;5034381;28;20068;-63
2023/05/17 10:28:41;;;;;;;10.68;2.60;;;13.90;94.20;;;;;;5031610;28;20454;-61
2023/05/17 10:31:07;;;;;;;7.53;2.15;;;13.90;94.10;;;;;;5032037;28;20188;-64
2023/05/17 10:33:33;;;;;;;8.50;2.30;;;13.90;94.10;;;;;;5032424;28;20511;-63
2023/05/17 10:36:00;;;;;;;10.63;2.00;;;13.80;94.30;;;;;;5027882;28;20095;-63
2023/05/17 10:38:26;;;;;;;11.98;2.08;;;13.90;94.60;;;;;;5019117;28;20053;-66
2023/05/17 10:40:53;;;;;;;11.45;2.28;;;13.80;94.00;;;;;;5023603;28;20075;-63
2023/05/17 10:43:20;;;;;;;12.38;2.72;;;13.70;94.70;;;;;;5035940;28;20037;-63
2023/05/17 10:45:46;;;;;;;13.90;2.70;;;13.80;95.00;;;;;;5035122;28;20076;-64
2023/05/17 10:48:15;;;;;;;10.10;1.92;;;13.80;94.80;;;;;;5014722;28;20079;-63
2023/05/17 10:50:45;;;;;;;16.38;2.63;;;13.70;95.00;;;;;;5023726;28;20401;-66
2023/05/17 10:53:11;;;;;;;12.70;2.75;;;13.50;95.20;;;;;;5030541;28;20045;-64
2023/05/17 10:55:40;;;;;;;15.43;2.80;;;13.30;94.80;;;;;;5016648;28;20052;-63
2023/05/17 10:58:09;;;;;;;13.35;3.08;;;13.20;95.30;;;;;;5024266;28;20044;-63
2023/05/17 11:00:40;;;;;;;12.48;3.03;;;13.40;95.40;;;;;;5018015;28;20033;-64
2023/05/17 11:03:13;;;;;;;10.57;2.42;;;13.30;95.00;;;;;;5029268;28;20083;-66
2023/05/17 11:05:43;;;;;;;10.38;2.20;;;13.00;95.50;;;;;;5025998;28;20551;-64
2023/05/17 11:08:16;;;;;;;12.02;3.42;;;13.10;95.70;;;;;;5034088;28;20056;-64
2023/05/17 11:14:13;;;;;;;11.48;2.42;;;13.10;95.20;;;;;;5031320;28;20040;-64
2023/05/17 11:16:39;;;;;;;13.05;2.88;;;13.20;95.10;;;;;;5036177;28;20495;-65
2023/05/17 11:19:10;;;;;;;12.48;3.03;;;13.20;95.70;;;;;;5045956;28;20127;-65
2023/05/17 11:21:46;;;;;;;9.10;3.17;;;13.30;95.60;;;;;;5032839;28;20126;-65
2023/05/17 11:24:15;;;;;;;11.75;3.03;;;13.50;95.50;;;;;;5026129;28;20100;-63
2023/05/17 11:26:45;;;;;;;13.60;3.10;;;13.40;95.30;;;;;;5035037;28;20047;-64
2023/05/17 11:29:11;;;;;;;14.30;3.30;;;13.30;95.40;;;;;;5015391;28;20049;-64
2023/05/17 11:31:42;;;;;;;10.40;2.97;;;12.90;95.30;;;;;;5043180;28;20038;-64
2023/05/17 11:34:09;;;;;;;12.15;3.75;;;12.70;95.60;;;;;;5032243;28;20044;-64
2023/05/17 11:36:53;;;;;;;12.40;2.95;;;12.70;96.00;;;;;;5019647;28;20391;-63
2023/05/17 11:39:20;;;;;;;11.60;2.33;;;12.90;96.00;;;;;;5026626;28;20049;-65
2023/05/17 11:41:54;;;;;;;11.10;2.40;;;13.10;95.70;;;;;;5025519;28;20432;-63
2023/05/17 11:44:28;;;;;;;11.93;2.25;;;13.50;95.80;;;;;;5015223;28;20033;-63
2023/05/17 11:47:03;;;;;;;;;;;13.90;95.40;;;;;;5045637;28;20135;-63
2023/05/17 11:49:31;;;;;;;13.60;2.70;;;14.00;94.10;;;;;;5027854;28;19921;-63
2023/05/17 11:51:58;;;;;;;11.50;2.50;;;14.00;94.70;;;;;;5030487;28;20563;-63
2023/05/17 11:54:24;;;;;;;11.00;2.28;;;13.70;93.80;;;;;;5031157;28;20072;-63
2023/05/17 11:56:52;;;;;;;10.68;2.13;;;13.70;93.90;;;;;;5010227;28;20036;-63
2023/05/17 11:59:19;;;;;;;13.60;2.22;;;14.00;94.50;;;;;;5050075;28;20103;-64
2023/05/17 12:01:46;;;;;;;11.35;2.03;;;13.90;93.50;;;;;;5033141;28;20049;-65
2023/05/17 12:04:12;;;;;;;8.32;1.70;;;13.90;93.70;;;;;;5037911;28;20123;-64
2023/05/17 12:06:38;;;;;;;9.38;1.77;;;14.10;93.10;;;;;;5019841;28;20131;-65
2023/05/17 12:09:09;;;;;;;9.32;2.10;;;14.30;93.70;;;;;;5035943;28;20120;-65
2023/05/17 12:11:36;;;;;;;12.98;2.20;;;14.60;93.20;;;;;;5030729;28;20044;-65
2023/05/17 12:14:02;;;;;;;8.00;1.80;;;14.60;92.90;;;;;;5037292;28;20102;-65
2023/05/17 12:16:29;;;;;;;14.88;2.42;;;14.50;93.30;;;;;;5033283;28;20076;-65
2023/05/17 12:18:57;;;;;;;6.43;1.77;;;14.30;92.60;;;;;;5031047;28;20091;-64
2023/05/17 12:21:22;;;;;;;7.28;1.65;;;14.10;92.60;;;;;;5032468;28;20106;-64
2023/05/17 12:23:50;;;;;;;12.05;2.47;;;13.80;91.90;;;;;;5031009;28;20037;-63
2023/05/17 12:26:22;;;;;;;14.00;2.67;;;14.00;92.40;;;;;;5047488;28;20045;-64
2023/05/17 12:28:57;;;;;;;6.50;2.08;;;14.10;90.90;;;;;;5030622;28;20503;-65
2023/05/17 12:31:31;;;;;;;10.52;2.45;;;14.20;91.50;;;;;;5042981;28;20446;-64
2023/05/17 12:33:58;;;;;;;6.78;1.58;;;14.40;91.60;;;;;;5029908;28;20048;-63
2023/05/17 12:36:26;;;;;;;9.80;2.53;;;14.30;91.20;;;;;;5031667;28;20450;-62
2023/05/17 12:38:52;;;;;;;10.50;1.85;;;14.30;91.40;;;;;;5029498;28;20045;-66
2023/05/17 12:41:21;;;;;;;7.40;1.90;;;14.60;91.80;;;;;;5057429;28;20407;-62
2023/05/17 12:43:48;;;;;;;9.85;1.95;;;14.60;91.20;;;;;;5048920;28;20045;-64
2023/05/17 12:46:19;;;;;;;8.98;2.17;;;13.90;88.90;;;;;;5018175;28;20110;-63
2023/05/17 12:48:46;;;;;;;8.05;1.85;;;13.90;91.00;;;;;;5034992;28;20052;-63